sensor_id;sensor_type;location;lat;lon;timestamp;pressure;altitude;pressure_sealevel;temperature;humidity
77482;BME280;66582;43.004;-75.010;2023-04-01T00:00:54;99888.08;;;7.02;61.46
77482;BME280;66582;43.004;-75.010;2023-04-01T00:03:18;99886.03;;;8.32;58.23
77482;BME280;66582;43.004;-75.010;2023-04-01T00:05:44;99879.85;;;8.59;55.80
77482;BME280;66582;43.004;-75.010;2023-04-01T00:08:09;99887.34;;;6.95;60.58
77482;BME280;66582;43.004;-75.010;2023-04-01T00:10:34;99889.24;;;6.51;64.21
77482;BME280;66582;43.004;-75.010;2023-04-01T00:12:59;99893.26;;;5.49;67.51
77482;BME280;66582;43.004;-75.010;2023-04-01T00:15:25;99884.59;;;6.09;68.88
77482;BME280;66582;43.004;-75.010;2023-04-01T00:17:51;99885.64;;;5.38;68.73
77482;BME280;66582;43.004;-75.010;2023-04-01T00:20:17;99872.64;;;6.63;66.04
77482;BME280;66582;43.004;-75.010;2023-04-01T00:22:41;99862.39;;;7.01;64.95
77482;BME280;66582;43.004;-75.010;2023-04-01T00:25:07;99869.43;;;6.13;67.16
77482;BME280;66582;43.004;-75.010;2023-04-01T00:27:32;99869.33;;;7.26;63.80
77482;BME280;66582;43.004;-75.010;2023-04-01T00:29:58;99872.07;;;7.43;61.39
77482;BME280;66582;43.004;-75.010;2023-04-01T00:32:24;99877.97;;;7.97;59.76
77482;BME280;66582;43.004;-75.010;2023-04-01T00:34:51;99880.21;;;7.18;61.26
77482;BME280;66582;43.004;-75.010;2023-04-01T00:37:14;99876.94;;;6.91;61.20
77482;BME280;66582;43.004;-75.010;2023-04-01T00:39:40;99879.15;;;6.38;65.23
77482;BME280;66582;43.004;-75.010;2023-04-01T00:42:05;99876.15;;;6.45;66.74
77482;BME280;66582;43.004;-75.010;2023-04-01T00:44:32;99891.70;;;4.29;75.97
77482;BME280;66582;43.004;-75.010;2023-04-01T00:46:55;99876.23;;;6.12;69.22
77482;BME280;66582;43.004;-75.010;2023-04-01T00:49:24;99880.91;;;6.94;66.41
77482;BME280;66582;43.004;-75.010;2023-04-01T00:51:50;99882.12;;;6.77;64.40
77482;BME280;66582;43.004;-75.010;2023-04-01T00:54:13;99881.87;;;7.36;64.91
77482;BME280;66582;43.004;-75.010;2023-04-01T00:56:41;99865.67;;;8.34;60.30
77482;BME280;66582;43.004;-75.010;2023-04-01T00:59:08;99869.48;;;8.43;58.74
77482;BME280;66582;43.004;-75.010;2023-04-01T01:01:30;99882.50;;;8.06;59.09
77482;BME280;66582;43.004;-75.010;2023-04-01T01:03:54;99882.33;;;7.79;58.62
77482;BME280;66582;43.004;-75.010;2023-04-01T01:06:27;99878.65;;;6.90;62.50
77482;BME280;66582;43.004;-75.010;2023-04-01T01:11:11;99874.57;;;5.49;68.86
77482;BME280;66582;43.004;-75.010;2023-04-01T01:13:41;99866.87;;;6.09;68.09
77482;BME280;66582;43.004;-75.010;2023-04-01T01:16:03;99861.02;;;6.56;64.49
77482;BME280;66582;43.004;-75.010;2023-04-01T01:18:32;99868.29;;;7.62;61.91
77482;BME280;66582;43.004;-75.010;2023-04-01T01:25:47;99858.32;;;7.82;60.31
77482;BME280;66582;43.004;-75.010;2023-04-01T01:28:23;99845.92;;;7.52;60.29
77482;BME280;66582;43.004;-75.010;2023-04-01T01:30:39;99845.93;;;7.73;60.08
77482;BME280;66582;43.004;-75.010;2023-04-01T01:33:09;99849.42;;;7.58;59.52
77482;BME280;66582;43.004;-75.010;2023-04-01T01:35:27;99835.97;;;8.72;57.63
77482;BME280;66582;43.004;-75.010;2023-04-01T01:37:52;99837.17;;;8.51;57.60
77482;BME280;66582;43.004;-75.010;2023-04-01T01:40:17;99831.40;;;8.86;56.47
77482;BME280;66582;43.004;-75.010;2023-04-01T01:42:45;99833.96;;;8.20;57.51
77482;BME280;66582;43.004;-75.010;2023-04-01T01:45:07;99822.86;;;8.36;57.04
77482;BME280;66582;43.004;-75.010;2023-04-01T01:47:33;99828.55;;;8.96;55.67
77482;BME280;66582;43.004;-75.010;2023-04-01T01:49:58;99829.82;;;8.62;56.75
77482;BME280;66582;43.004;-75.010;2023-04-01T01:52:23;99826.63;;;8.70;56.49
77482;BME280;66582;43.004;-75.010;2023-04-01T01:54:49;99826.71;;;7.91;58.84
77482;BME280;66582;43.004;-75.010;2023-04-01T01:57:13;99814.30;;;8.97;57.01
77482;BME280;66582;43.004;-75.010;2023-04-01T01:59:40;99798.65;;;9.06;55.53
77482;BME280;66582;43.004;-75.010;2023-04-01T02:02:06;99801.51;;;8.78;55.03
77482;BME280;66582;43.004;-75.010;2023-04-01T02:04:30;99804.53;;;7.28;61.23
77482;BME280;66582;43.004;-75.010;2023-04-01T02:06:59;99792.49;;;7.66;59.70
77482;BME280;66582;43.004;-75.010;2023-04-01T02:09:21;99777.25;;;7.32;61.47
77482;BME280;66582;43.004;-75.010;2023-04-01T02:11:50;99774.90;;;8.42;57.68
77482;BME280;66582;43.004;-75.010;2023-04-01T02:14:15;99767.17;;;7.71;59.85
77482;BME280;66582;43.004;-75.010;2023-04-01T02:16:43;99749.21;;;8.93;57.47
77482;BME280;66582;43.004;-75.010;2023-04-01T02:19:04;99753.00;;;8.33;59.18
77482;BME280;66582;43.004;-75.010;2023-04-01T02:21:30;99744.50;;;8.62;57.77
77482;BME280;66582;43.004;-75.010;2023-04-01T02:23:54;99744.38;;;8.49;58.48
77482;BME280;66582;43.004;-75.010;2023-04-01T02:26:20;99741.69;;;8.63;56.88
77482;BME280;66582;43.004;-75.010;2023-04-01T02:28:45;99739.33;;;8.03;59.94
77482;BME280;66582;43.004;-75.010;2023-04-01T02:31:10;99731.12;;;7.46;60.29
77482;BME280;66582;43.004;-75.010;2023-04-01T02:33:35;99721.28;;;6.63;63.17
77482;BME280;66582;43.004;-75.010;2023-04-01T02:36:00;99702.14;;;7.97;60.88
77482;BME280;66582;43.004;-75.010;2023-04-01T02:38:25;99696.21;;;8.16;59.82
77482;BME280;66582;43.004;-75.010;2023-04-01T02:40:57;99690.25;;;7.87;60.52
77482;BME280;66582;43.004;-75.010;2023-04-01T02:43:18;99686.77;;;7.95;60.18
77482;BME280;66582;43.004;-75.010;2023-04-01T02:45:43;99677.30;;;7.89;60.60
77482;BME280;66582;43.004;-75.010;2023-04-01T02:48:08;99667.81;;;7.98;59.93
77482;BME280;66582;43.004;-75.010;2023-04-01T02:50:33;99648.76;;;8.48;58.52
77482;BME280;66582;43.004;-75.010;2023-04-01T02:52:59;99625.61;;;8.66;57.93
77482;BME280;66582;43.004;-75.010;2023-04-01T02:55:25;99609.73;;;8.31;58.47
77482;BME280;66582;43.004;-75.010;2023-04-01T02:57:50;99607.48;;;6.89;62.47
77482;BME280;66582;43.004;-75.010;2023-04-01T03:00:17;99600.05;;;7.62;60.96
77482;BME280;66582;43.004;-75.010;2023-04-01T03:02:42;99606.33;;;8.14;59.77
77482;BME280;66582;43.004;-75.010;2023-04-01T03:05:08;99609.24;;;8.51;58.87
77482;BME280;66582;43.004;-75.010;2023-04-01T03:07:32;99609.35;;;8.83;58.42
77482;BME280;66582;43.004;-75.010;2023-04-01T03:09:58;99590.75;;;8.72;57.68
77482;BME280;66582;43.004;-75.010;2023-04-01T03:12:23;99577.77;;;9.19;56.49
77482;BME280;66582;43.004;-75.010;2023-04-01T03:14:49;99560.88;;;8.40;57.50
77482;BME280;66582;43.004;-75.010;2023-04-01T03:17:14;99562.77;;;9.43;56.36
77482;BME280;66582;43.004;-75.010;2023-04-01T03:19:40;99569.05;;;9.00;57.50
77482;BME280;66582;43.004;-75.010;2023-04-01T03:22:05;99577.76;;;8.03;59.14
77482;BME280;66582;43.004;-75.010;2023-04-01T03:24:30;99588.75;;;7.84;60.28
77482;BME280;66582;43.004;-75.010;2023-04-01T03:26:56;99588.48;;;7.82;61.17
77482;BME280;66582;43.004;-75.010;2023-04-01T03:29:21;99570.14;;;8.42;59.58
77482;BME280;66582;43.004;-75.010;2023-04-01T03:31:47;99564.90;;;8.67;59.02
77482;BME280;66582;43.004;-75.010;2023-04-01T03:34:12;99571.53;;;7.89;60.20
77482;BME280;66582;43.004;-75.010;2023-04-01T03:36:38;99577.43;;;9.17;58.03
77482;BME280;66582;43.004;-75.010;2023-04-01T03:39:03;99580.43;;;7.41;62.96
77482;BME280;66582;43.004;-75.010;2023-04-01T03:41:28;99556.77;;;8.36;60.27
77482;BME280;66582;43.004;-75.010;2023-04-01T03:43:54;99540.17;;;8.39;60.50
77482;BME280;66582;43.004;-75.010;2023-04-01T03:46:21;99546.29;;;7.47;63.51
77482;BME280;66582;43.004;-75.010;2023-04-01T03:48:45;99548.52;;;7.33;64.48
77482;BME280;66582;43.004;-75.010;2023-04-01T03:51:11;99544.86;;;8.03;62.27
77482;BME280;66582;43.004;-75.010;2023-04-01T03:53:37;99542.91;;;8.40;61.32
77482;BME280;66582;43.004;-75.010;2023-04-01T03:56:04;99532.50;;;8.79;58.91
77482;BME280;66582;43.004;-75.010;2023-04-01T03:58:28;99530.87;;;8.29;60.16
77482;BME280;66582;43.004;-75.010;2023-04-01T04:00:54;99531.76;;;7.43;61.99
77482;BME280;66582;43.004;-75.010;2023-04-01T04:03:19;99530.36;;;7.87;62.75
77482;BME280;66582;43.004;-75.010;2023-04-01T04:05:47;99539.60;;;7.57;63.04
77482;BME280;66582;43.004;-75.010;2023-04-01T04:08:10;99537.50;;;7.23;65.30
77482;BME280;66582;43.004;-75.010;2023-04-01T04:10:36;99519.11;;;8.16;62.32
77482;BME280;66582;43.004;-75.010;2023-04-01T04:13:02;99514.01;;;7.41;64.54
77482;BME280;66582;43.004;-75.010;2023-04-01T04:15:27;99502.37;;;7.25;65.00
77482;BME280;66582;43.004;-75.010;2023-04-01T04:17:54;99490.99;;;7.57;63.18
77482;BME280;66582;43.004;-75.010;2023-04-01T04:20:18;99492.17;;;7.42;63.37
77482;BME280;66582;43.004;-75.010;2023-04-01T04:22:43;99496.17;;;7.08;64.73
77482;BME280;66582;43.004;-75.010;2023-04-01T04:25:08;99487.62;;;7.60;62.95
77482;BME280;66582;43.004;-75.010;2023-04-01T04:27:34;99476.99;;;7.37;64.45
77482;BME280;66582;43.004;-75.010;2023-04-01T04:29:59;99477.38;;;7.63;63.63
77482;BME280;66582;43.004;-75.010;2023-04-01T04:32:24;99470.92;;;8.16;62.73
77482;BME280;66582;43.004;-75.010;2023-04-01T04:34:50;99451.90;;;7.61;63.59
77482;BME280;66582;43.004;-75.010;2023-04-01T04:37:15;99449.21;;;7.78;62.66
77482;BME280;66582;43.004;-75.010;2023-04-01T04:39:40;99451.76;;;7.29;64.62
77482;BME280;66582;43.004;-75.010;2023-04-01T04:42:06;99458.64;;;7.53;63.86
77482;BME280;66582;43.004;-75.010;2023-04-01T04:44:31;99437.16;;;7.79;62.25
77482;BME280;66582;43.004;-75.010;2023-04-01T04:46:57;99425.30;;;7.09;64.93
77482;BME280;66582;43.004;-75.010;2023-04-01T04:49:23;99423.18;;;6.74;66.47
77482;BME280;66582;43.004;-75.010;2023-04-01T04:51:48;99412.46;;;6.72;67.44
77482;BME280;66582;43.004;-75.010;2023-04-01T04:54:13;99399.43;;;7.59;65.22
77482;BME280;66582;43.004;-75.010;2023-04-01T04:56:39;99403.51;;;6.76;67.81
77482;BME280;66582;43.004;-75.010;2023-04-01T04:59:05;99386.75;;;7.68;64.00
77482;BME280;66582;43.004;-75.010;2023-04-01T05:01:31;99377.97;;;7.91;62.61
77482;BME280;66582;43.004;-75.010;2023-04-01T05:03:57;99368.32;;;8.13;61.81
77482;BME280;66582;43.004;-75.010;2023-04-01T05:06:22;99356.64;;;8.93;59.57
77482;BME280;66582;43.004;-75.010;2023-04-01T05:08:47;99348.18;;;8.14;60.71
77482;BME280;66582;43.004;-75.010;2023-04-01T05:11:14;99355.15;;;8.35;60.69
77482;BME280;66582;43.004;-75.010;2023-04-01T05:13:38;99350.98;;;8.72;58.74
77482;BME280;66582;43.004;-75.010;2023-04-01T05:16:07;99353.71;;;9.83;56.65
77482;BME280;66582;43.004;-75.010;2023-04-01T05:18:29;99361.06;;;9.51;56.39
77482;BME280;66582;43.004;-75.010;2023-04-01T05:20:54;99369.50;;;8.99;56.80
77482;BME280;66582;43.004;-75.010;2023-04-01T05:23:21;99374.62;;;6.65;64.94
77482;BME280;66582;43.004;-75.010;2023-04-01T05:25:45;99376.32;;;5.79;65.89
77482;BME280;66582;43.004;-75.010;2023-04-01T05:28:11;99369.30;;;7.05;64.69
77482;BME280;66582;43.004;-75.010;2023-04-01T05:30:36;99362.53;;;8.10;60.05
77482;BME280;66582;43.004;-75.010;2023-04-01T05:33:02;99361.36;;;7.68;62.37
77482;BME280;66582;43.004;-75.010;2023-04-01T05:35:28;99353.18;;;8.54;59.18
77482;BME280;66582;43.004;-75.010;2023-04-01T05:37:53;99344.79;;;9.17;57.14
77482;BME280;66582;43.004;-75.010;2023-04-01T05:40:18;99344.33;;;9.25;56.46
77482;BME280;66582;43.004;-75.010;2023-04-01T05:42:45;99338.42;;;7.87;58.18
77482;BME280;66582;43.004;-75.010;2023-04-01T05:45:10;99328.89;;;8.11;59.55
77482;BME280;66582;43.004;-75.010;2023-04-01T05:47:35;99318.14;;;7.83;60.44
77482;BME280;66582;43.004;-75.010;2023-04-01T05:50:01;99301.02;;;8.48;58.94
77482;BME280;66582;43.004;-75.010;2023-04-01T05:52:27;99308.44;;;8.89;58.09
77482;BME280;66582;43.004;-75.010;2023-04-01T05:54:51;99305.99;;;6.22;63.66
77482;BME280;66582;43.004;-75.010;2023-04-01T05:57:17;99286.23;;;7.23;63.48
77482;BME280;66582;43.004;-75.010;2023-04-01T05:59:43;99282.61;;;8.71;58.87
77482;BME280;66582;43.004;-75.010;2023-04-01T06:02:09;99293.46;;;6.46;65.06
77482;BME280;66582;43.004;-75.010;2023-04-01T06:04:38;99273.24;;;8.39;61.10
77482;BME280;66582;43.004;-75.010;2023-04-01T06:07:00;99264.38;;;8.22;60.76
77482;BME280;66582;43.004;-75.010;2023-04-01T06:09:27;99240.89;;;8.91;59.07
77482;BME280;66582;43.004;-75.010;2023-04-01T06:12:02;99235.97;;;8.33;60.21
77482;BME280;66582;43.004;-75.010;2023-04-01T06:14:24;99224.70;;;8.38;59.24
77482;BME280;66582;43.004;-75.010;2023-04-01T06:16:51;99217.42;;;9.16;57.96
77482;BME280;66582;43.004;-75.010;2023-04-01T06:19:16;99224.29;;;8.20;60.24
77482;BME280;66582;43.004;-75.010;2023-04-01T06:24:03;99191.43;;;9.02;57.64
77482;BME280;66582;43.004;-75.010;2023-04-01T06:26:30;99183.20;;;8.96;58.50
77482;BME280;66582;43.004;-75.010;2023-04-01T06:29:01;99175.99;;;8.48;59.33
77482;BME280;66582;43.004;-75.010;2023-04-01T06:31:24;99178.10;;;7.88;60.56
77482;BME280;66582;43.004;-75.010;2023-04-01T06:33:51;99174.35;;;8.57;58.94
77482;BME280;66582;43.004;-75.010;2023-04-01T06:36:13;99159.18;;;9.28;58.01
77482;BME280;66582;43.004;-75.010;2023-04-01T06:38:38;99140.00;;;9.02;57.32
77482;BME280;66582;43.004;-75.010;2023-04-01T06:41:06;99135.21;;;9.50;56.58
77482;BME280;66582;43.004;-75.010;2023-04-01T06:43:26;99137.36;;;8.47;58.42
77482;BME280;66582;43.004;-75.010;2023-04-01T06:45:50;99129.02;;;9.18;56.84
77482;BME280;66582;43.004;-75.010;2023-04-01T06:48:21;99126.23;;;9.86;55.10
77482;BME280;66582;43.004;-75.010;2023-04-01T06:50:44;99138.55;;;8.86;58.22
77482;BME280;66582;43.004;-75.010;2023-04-01T06:53:06;99141.39;;;8.37;59.88
77482;BME280;66582;43.004;-75.010;2023-04-01T06:55:35;99129.41;;;7.81;62.29
77482;BME280;66582;43.004;-75.010;2023-04-01T06:57:56;99120.53;;;9.28;58.30
77482;BME280;66582;43.004;-75.010;2023-04-01T07:00:26;99128.08;;;8.88;58.19
77482;BME280;66582;43.004;-75.010;2023-04-01T07:02:48;99109.38;;;9.71;56.50
77482;BME280;66582;43.004;-75.010;2023-04-01T07:05:12;99103.34;;;9.59;56.01
77482;BME280;66582;43.004;-75.010;2023-04-01T07:07:38;99098.59;;;9.33;56.27
77482;BME280;66582;43.004;-75.010;2023-04-01T07:10:06;99086.84;;;8.98;57.52
77482;BME280;66582;43.004;-75.010;2023-04-01T07:12:37;99074.59;;;8.82;57.27
77482;BME280;66582;43.004;-75.010;2023-04-01T07:14:53;99058.73;;;9.12;56.70
77482;BME280;66582;43.004;-75.010;2023-04-01T07:17:20;99048.51;;;8.74;58.83
77482;BME280;66582;43.004;-75.010;2023-04-01T07:19:45;99067.71;;;8.74;58.51
77482;BME280;66582;43.004;-75.010;2023-04-01T07:22:19;99071.17;;;8.84;58.33
77482;BME280;66582;43.004;-75.010;2023-04-01T07:24:36;99054.63;;;9.12;57.37
77482;BME280;66582;43.004;-75.010;2023-04-01T07:26:59;99047.83;;;9.02;56.91
77482;BME280;66582;43.004;-75.010;2023-04-01T07:29:25;99059.50;;;7.49;61.01
77482;BME280;66582;43.004;-75.010;2023-04-01T07:34:19;99038.91;;;9.56;55.83
77482;BME280;66582;43.004;-75.010;2023-04-01T07:36:45;99044.98;;;9.27;57.23
77482;BME280;66582;43.004;-75.010;2023-04-01T07:39:15;99042.92;;;10.23;54.39
77482;BME280;66582;43.004;-75.010;2023-04-01T07:41:40;99034.51;;;10.18;53.94
77482;BME280;66582;43.004;-75.010;2023-04-01T07:44:06;99028.45;;;10.09;53.72
77482;BME280;66582;43.004;-75.010;2023-04-01T07:46:40;99016.51;;;9.97;53.78
77482;BME280;66582;43.004;-75.010;2023-04-01T07:48:52;99014.55;;;9.27;55.08
77482;BME280;66582;43.004;-75.010;2023-04-01T07:51:16;99006.96;;;9.11;55.95
77482;BME280;66582;43.004;-75.010;2023-04-01T07:53:41;99017.69;;;6.81;62.29
77482;BME280;66582;43.004;-75.010;2023-04-01T07:56:07;98997.96;;;6.78;67.50
77482;BME280;66582;43.004;-75.010;2023-04-01T07:58:35;98987.46;;;5.80;73.43
77482;BME280;66582;43.004;-75.010;2023-04-01T08:01:01;98963.60;;;7.11;68.11
77482;BME280;66582;43.004;-75.010;2023-04-01T08:03:31;98965.06;;;8.22;64.12
77482;BME280;66582;43.004;-75.010;2023-04-01T08:05:53;98945.34;;;8.06;63.51
77482;BME280;66582;43.004;-75.010;2023-04-01T08:08:18;98943.17;;;7.61;66.01
77482;BME280;66582;43.004;-75.010;2023-04-01T08:10:43;98936.38;;;7.26;65.72
77482;BME280;66582;43.004;-75.010;2023-04-01T08:13:08;98920.23;;;8.36;63.27
77482;BME280;66582;43.004;-75.010;2023-04-01T08:15:31;98902.89;;;8.71;61.44
77482;BME280;66582;43.004;-75.010;2023-04-01T08:18:00;98896.57;;;6.40;68.26
77482;BME280;66582;43.004;-75.010;2023-04-01T08:20:27;98875.43;;;7.18;67.45
77482;BME280;66582;43.004;-75.010;2023-04-01T08:22:49;98851.01;;;6.60;69.06
77482;BME280;66582;43.004;-75.010;2023-04-01T08:25:16;98827.57;;;8.46;62.51
77482;BME280;66582;43.004;-75.010;2023-04-01T08:27:39;98809.36;;;8.90;60.65
77482;BME280;66582;43.004;-75.010;2023-04-01T08:30:06;98790.02;;;8.25;61.43
77482;BME280;66582;43.004;-75.010;2023-04-01T08:32:30;98786.66;;;8.16;61.77
77482;BME280;66582;43.004;-75.010;2023-04-01T08:34:58;98776.03;;;7.87;62.93
77482;BME280;66582;43.004;-75.010;2023-04-01T08:37:21;98769.34;;;9.23;59.92
77482;BME280;66582;43.004;-75.010;2023-04-01T08:39:46;98778.80;;;6.69;67.18
77482;BME280;66582;43.004;-75.010;2023-04-01T08:42:22;98765.79;;;6.80;69.87
77482;BME280;66582;43.004;-75.010;2023-04-01T08:47:16;98761.64;;;8.32;63.81
77482;BME280;66582;43.004;-75.010;2023-04-01T08:49:35;98808.14;;;7.25;66.85
77482;BME280;66582;43.004;-75.010;2023-04-01T08:56:47;98844.03;;;7.01;67.38
77482;BME280;66582;43.004;-75.010;2023-04-01T09:01:48;98839.68;;;6.86;70.65
77482;BME280;66582;43.004;-75.010;2023-04-01T09:04:14;98838.90;;;6.04;76.97
77482;BME280;66582;43.004;-75.010;2023-04-01T09:06:35;98810.80;;;6.74;74.57
77482;BME280;66582;43.004;-75.010;2023-04-01T09:11:26;98747.75;;;6.50;76.50
77482;BME280;66582;43.004;-75.010;2023-04-01T09:13:52;98762.36;;;6.62;75.88
77482;BME280;66582;43.004;-75.010;2023-04-01T09:16:20;98749.21;;;6.43;75.35
77482;BME280;66582;43.004;-75.010;2023-04-01T09:18:49;98696.57;;;6.58;75.10
77482;BME280;66582;43.004;-75.010;2023-04-01T09:21:04;98686.11;;;6.53;75.10
77482;BME280;66582;43.004;-75.010;2023-04-01T09:23:35;98696.24;;;7.47;71.19
77482;BME280;66582;43.004;-75.010;2023-04-01T09:25:57;98687.88;;;7.90;67.70
77482;BME280;66582;43.004;-75.010;2023-04-01T09:28:18;98684.04;;;8.16;65.15
77482;BME280;66582;43.004;-75.010;2023-04-01T09:30:51;98681.39;;;8.60;64.04
77482;BME280;66582;43.004;-75.010;2023-04-01T09:35:39;98674.57;;;7.94;64.70
77482;BME280;66582;43.004;-75.010;2023-04-01T09:38:00;98674.05;;;8.02;66.39
77482;BME280;66582;43.004;-75.010;2023-04-01T09:40:26;98683.84;;;7.59;69.10
77482;BME280;66582;43.004;-75.010;2023-04-01T09:42:59;98667.76;;;8.27;64.80
77482;BME280;66582;43.004;-75.010;2023-04-01T09:45:20;98656.80;;;8.23;64.90
77482;BME280;66582;43.004;-75.010;2023-04-01T09:47:48;98636.20;;;8.57;61.89
77482;BME280;66582;43.004;-75.010;2023-04-01T09:52:32;98626.26;;;7.12;68.35
77482;BME280;66582;43.004;-75.010;2023-04-01T09:55:06;98608.79;;;7.80;65.49
77482;BME280;66582;43.004;-75.010;2023-04-01T09:57:30;98601.50;;;8.33;64.16
77482;BME280;66582;43.004;-75.010;2023-04-01T10:04:50;98595.32;;;7.78;65.24
77482;BME280;66582;43.004;-75.010;2023-04-01T10:11:58;98555.30;;;6.23;71.66
77482;BME280;66582;43.004;-75.010;2023-04-01T10:19:12;98569.89;;;6.01;73.79
77482;BME280;66582;43.004;-75.010;2023-04-01T10:24:08;98565.22;;;6.42;73.36
77482;BME280;66582;43.004;-75.010;2023-04-01T10:26:37;98546.73;;;5.96;77.15
77482;BME280;66582;43.004;-75.010;2023-04-01T10:28:59;98548.03;;;5.84;76.51
77482;BME280;66582;43.004;-75.010;2023-04-01T10:31:24;98528.38;;;6.69;74.18
77482;BME280;66582;43.004;-75.010;2023-04-01T10:45:58;98530.90;;;7.09;69.08
77482;BME280;66582;43.004;-75.010;2023-04-01T10:48:14;98530.40;;;5.81;75.45
77482;BME280;66582;43.004;-75.010;2023-04-01T10:55:36;98519.39;;;6.18;79.31
77482;BME280;66582;43.004;-75.010;2023-04-01T11:00:29;98529.74;;;5.38;82.52
77482;BME280;66582;43.004;-75.010;2023-04-01T11:12:33;98468.85;;;7.01;72.96
77482;BME280;66582;43.004;-75.010;2023-04-01T11:22:10;98456.08;;;6.80;75.23
77482;BME280;66582;43.004;-75.010;2023-04-01T11:26:57;98446.12;;;8.10;69.42
77482;BME280;66582;43.004;-75.010;2023-04-01T11:29:31;98450.18;;;8.41;68.87
77482;BME280;66582;43.004;-75.010;2023-04-01T11:31:48;98455.04;;;8.39;67.90
77482;BME280;66582;43.004;-75.010;2023-04-01T11:34:11;98456.03;;;8.36;65.46
77482;BME280;66582;43.004;-75.010;2023-04-01T11:36:37;98448.06;;;8.41;65.44
77482;BME280;66582;43.004;-75.010;2023-04-01T11:39:10;98424.78;;;8.47;64.66
77482;BME280;66582;43.004;-75.010;2023-04-01T11:41:27;98406.82;;;6.93;71.68
77482;BME280;66582;43.004;-75.010;2023-04-01T11:43:51;98427.50;;;7.83;69.24
77482;BME280;66582;43.004;-75.010;2023-04-01T11:46:12;98435.91;;;8.07;68.03
77482;BME280;66582;43.004;-75.010;2023-04-01T11:48:42;98430.09;;;8.66;65.65
77482;BME280;66582;43.004;-75.010;2023-04-01T11:51:07;98423.87;;;7.73;68.43
77482;BME280;66582;43.004;-75.010;2023-04-01T11:53:33;98404.40;;;7.92;69.13
77482;BME280;66582;43.004;-75.010;2023-04-01T11:56:00;98394.73;;;6.90;73.30
77482;BME280;66582;43.004;-75.010;2023-04-01T11:58:23;98373.19;;;6.47;76.77
77482;BME280;66582;43.004;-75.010;2023-04-01T12:05:39;98334.01;;;6.21;81.04
77482;BME280;66582;43.004;-75.010;2023-04-01T12:08:06;98352.35;;;5.26;82.14
77482;BME280;66582;43.004;-75.010;2023-04-01T12:10:26;98347.33;;;5.99;82.07
77482;BME280;66582;43.004;-75.010;2023-04-01T12:12:54;98349.61;;;6.95;79.91
77482;BME280;66582;43.004;-75.010;2023-04-01T12:15:19;98353.46;;;5.36;86.45
77482;BME280;66582;43.004;-75.010;2023-04-01T12:17:43;98355.08;;;7.15;80.43
77482;BME280;66582;43.004;-75.010;2023-04-01T12:22:41;98329.31;;;7.76;74.94
77482;BME280;66582;43.004;-75.010;2023-04-01T12:24:58;98315.86;;;8.44;72.54
77482;BME280;66582;43.004;-75.010;2023-04-01T12:29:54;98296.42;;;8.79;68.75
77482;BME280;66582;43.004;-75.010;2023-04-01T12:32:16;98300.66;;;9.60;67.01
77482;BME280;66582;43.004;-75.010;2023-04-01T12:34:44;98286.69;;;9.09;66.70
77482;BME280;66582;43.004;-75.010;2023-04-01T12:37:06;98288.85;;;10.10;62.52
77482;BME280;66582;43.004;-75.010;2023-04-01T12:39:40;98268.76;;;8.48;66.83
77482;BME280;66582;43.004;-75.010;2023-04-01T12:41:57;98278.92;;;6.96;77.76
77482;BME280;66582;43.004;-75.010;2023-04-01T12:44:27;98271.12;;;8.14;73.90
77482;BME280;66582;43.004;-75.010;2023-04-01T12:49:23;98265.95;;;7.68;73.83
77482;BME280;66582;43.004;-75.010;2023-04-01T12:51:43;98250.63;;;8.45;72.89
77482;BME280;66582;43.004;-75.010;2023-04-01T12:56:28;98255.37;;;7.93;76.60
77482;BME280;66582;43.004;-75.010;2023-04-01T12:58:56;98236.00;;;9.27;68.19
77482;BME280;66582;43.004;-75.010;2023-04-01T13:01:27;98221.39;;;10.10;65.07
77482;BME280;66582;43.004;-75.010;2023-04-01T13:03:48;98217.40;;;9.60;65.66
77482;BME280;66582;43.004;-75.010;2023-04-01T13:08:36;98165.60;;;10.02;67.31
77482;BME280;66582;43.004;-75.010;2023-04-01T13:11:04;98158.13;;;9.17;69.83
77482;BME280;66582;43.004;-75.010;2023-04-01T13:13:33;98165.46;;;10.61;67.55
77482;BME280;66582;43.004;-75.010;2023-04-01T13:15:49;98158.79;;;10.65;63.93
77482;BME280;66582;43.004;-75.010;2023-04-01T13:18:21;98129.39;;;11.41;61.45
77482;BME280;66582;43.004;-75.010;2023-04-01T13:20:44;98112.27;;;10.98;61.96
77482;BME280;66582;43.004;-75.010;2023-04-01T13:23:09;98100.30;;;11.05;61.38
77482;BME280;66582;43.004;-75.010;2023-04-01T13:25:32;98106.48;;;9.94;66.59
77482;BME280;66582;43.004;-75.010;2023-04-01T13:27:53;98088.45;;;9.00;70.65
77482;BME280;66582;43.004;-75.010;2023-04-01T13:30:22;98070.82;;;9.91;67.90
77482;BME280;66582;43.004;-75.010;2023-04-01T13:32:45;98056.01;;;10.43;65.31
77482;BME280;66582;43.004;-75.010;2023-04-01T13:35:20;98086.50;;;9.76;67.20
77482;BME280;66582;43.004;-75.010;2023-04-01T13:37:44;98134.24;;;10.04;66.51
77482;BME280;66582;43.004;-75.010;2023-04-01T13:40:11;98179.75;;;8.45;72.34
77482;BME280;66582;43.004;-75.010;2023-04-01T13:42:26;98196.16;;;9.14;70.34
77482;BME280;66582;43.004;-75.010;2023-04-01T13:44:53;98187.82;;;9.58;69.15
77482;BME280;66582;43.004;-75.010;2023-04-01T13:47:24;98233.90;;;8.80;73.52
77482;BME280;66582;43.004;-75.010;2023-04-01T13:50:03;98221.51;;;8.91;75.22
77482;BME280;66582;43.004;-75.010;2023-04-01T13:52:17;98247.11;;;9.20;72.41
77482;BME280;66582;43.004;-75.010;2023-04-01T13:54:43;98242.77;;;9.80;70.37
77482;BME280;66582;43.004;-75.010;2023-04-01T13:57:05;98232.13;;;10.51;69.55
77482;BME280;66582;43.004;-75.010;2023-04-01T13:59:40;98196.30;;;9.63;70.68
77482;BME280;66582;43.004;-75.010;2023-04-01T14:01:51;98211.32;;;8.43;76.58
77482;BME280;66582;43.004;-75.010;2023-04-01T14:06:47;98110.46;;;9.70;74.81
77482;BME280;66582;43.004;-75.010;2023-04-01T14:09:19;98090.71;;;9.40;74.74
77482;BME280;66582;43.004;-75.010;2023-04-01T14:11:35;98087.67;;;9.04;76.19
77482;BME280;66582;43.004;-75.010;2023-04-01T14:14:04;98069.20;;;9.73;74.09
77482;BME280;66582;43.004;-75.010;2023-04-01T14:21:20;98028.55;;;10.40;69.91
77482;BME280;66582;43.004;-75.010;2023-04-01T14:23:43;98076.55;;;7.94;82.78
77482;BME280;66582;43.004;-75.010;2023-04-01T14:26:20;98046.22;;;8.95;78.94
77482;BME280;66582;43.004;-75.010;2023-04-01T14:28:31;98027.98;;;9.28;77.82